Time;durP1;ratioP1;P1;durP2;ratioP2;P2;SDS_P1;SDS_P2;PMS_P1;PMS_P2;Temp;Humidity;BMP_temperature;BMP_pressure;BME280_temperature;BME280_humidity;BME280_pressure;Samples;Min_cycle;Max_cycle;Signal;HPM_P1;HPM_P2
2023/09/29 03:03:03;;;;;;;3.20;2.75;;;22.50;52.20;;;;;;4814346;28;46448;-81
2023/09/29 03:05:29;;;;;;;4.75;3.03;;;22.50;52.20;;;;;;4879980;28;45196;-80
2023/09/29 03:07:57;;;;;;;3.28;2.67;;;22.60;52.30;;;;;;4885449;28;46394;-79
2023/09/29 03:10:26;;;;;;;4.85;2.92;;;22.50;52.20;;;;;;4871926;28;45622;-79
2023/09/29 03:12:53;;;;;;;3.30;2.70;;;22.50;52.20;;;;;;4863658;29;45007;-81
2023/09/29 03:15:21;;;;;;;3.60;2.70;;;22.50;52.20;;;;;;4866715;29;45050;-87
2023/09/29 03:17:46;;;;;;;3.65;2.80;;;22.50;52.20;;;;;;4866404;29;45025;-81
2023/09/29 03:20:14;;;;;;;3.13;2.63;;;22.50;52.20;;;;;;4880469;29;45933;-88
2023/09/29 03:22:40;;;;;;;3.83;2.80;;;22.50;52.20;;;;;;4863906;29;45346;-81
2023/09/29 03:25:10;;;;;;;3.53;2.63;;;22.50;52.20;;;;;;4840376;29;45815;-87
2023/09/29 03:27:36;;;;;;;3.20;2.63;;;22.50;52.20;;;;;;4872834;29;45492;-80
2023/09/29 03:30:22;;;;;;;4.00;3.10;;;22.50;52.20;;;;;;4859669;29;45124;-79
2023/09/29 03:32:48;;;;;;;3.42;2.80;;;22.50;52.10;;;;;;4885467;29;45295;-80
2023/09/29 03:35:14;;;;;;;4.10;2.70;;;22.50;52.10;;;;;;4855771;29;45215;-81
2023/09/29 03:37:40;;;;;;;3.25;2.63;;;22.50;52.10;;;;;;4855584;29;46178;-81
2023/09/29 03:40:08;;;;;;;4.25;2.88;;;22.50;52.10;;;;;;4871253;29;45194;-80
2023/09/29 03:42:35;;;;;;;3.55;2.70;;;22.50;52.10;;;;;;4873539;29;45444;-80
2023/09/29 03:45:05;;;;;;;4.00;2.60;;;22.50;52.10;;;;;;4885795;29;45314;-79
2023/09/29 03:47:33;;;;;;;2.90;2.60;;;22.50;52.10;;;;;;4868304;29;45424;-79
2023/09/29 03:49:59;;;;;;;3.45;2.67;;;22.50;52.10;;;;;;4875470;29;45385;-82
2023/09/29 03:52:26;;;;;;;4.07;2.50;;;22.50;52.10;;;;;;4847757;29;45215;-85
2023/09/29 03:54:52;;;;;;;2.83;2.45;;;22.50;52.10;;;;;;4892351;28;46071;-85
2023/09/29 03:57:19;;;;;;;4.45;2.70;;;22.50;52.10;;;;;;4851668;29;45558;-80
2023/09/29 03:59:45;;;;;;;3.53;2.80;;;22.50;52.10;;;;;;4869960;29;45549;-81
2023/09/29 04:02:13;;;;;;;3.25;2.72;;;22.50;52.00;;;;;;4843215;29;45678;-80
2023/09/29 04:04:39;;;;;;;3.33;2.50;;;22.50;52.00;;;;;;4826565;29;45174;-80
2023/09/29 04:07:05;;;;;;;3.67;2.40;;;22.50;52.00;;;;;;4835292;29;46071;-83
2023/09/29 04:09:31;;;;;;;3.43;2.50;;;22.50;52.00;;;;;;4855026;29;45127;-81
2023/09/29 04:11:56;;;;;;;2.97;2.47;;;22.50;52.00;;;;;;4835879;29;45250;-80
2023/09/29 04:14:22;;;;;;;3.17;2.57;;;22.50;52.00;;;;;;4830478;29;45242;-79
2023/09/29 04:16:48;;;;;;;2.92;2.63;;;22.50;52.00;;;;;;4866841;29;45376;-79
2023/09/29 04:19:14;;;;;;;3.13;2.40;;;22.50;52.00;;;;;;4855178;29;45506;-84
2023/09/29 04:21:42;;;;;;;3.92;2.92;;;22.50;52.00;;;;;;4835237;29;44638;-80
2023/09/29 04:24:08;;;;;;;3.10;2.75;;;22.50;52.00;;;;;;4835235;29;45565;-80
2023/09/29 04:26:35;;;;;;;3.17;2.50;;;22.50;52.00;;;;;;4833844;29;46381;-79
2023/09/29 04:29:01;;;;;;;2.70;2.40;;;22.50;52.00;;;;;;4839950;29;44637;-79
2023/09/29 04:31:27;;;;;;;3.10;2.67;;;22.50;52.00;;;;;;4829785;29;45269;-79
2023/09/29 04:33:53;;;;;;;2.97;2.60;;;22.50;52.00;;;;;;4841254;29;45195;-79
2023/09/29 04:36:19;;;;;;;3.33;2.47;;;22.50;52.00;;;;;;4822189;29;46027;-82
2023/09/29 04:38:45;;;;;;;3.50;2.80;;;22.50;51.90;;;;;;4838298;29;44870;-79
2023/09/29 04:41:12;;;;;;;3.58;2.80;;;22.50;52.00;;;;;;4838167;29;44678;-82
2023/09/29 04:43:38;;;;;;;3.78;2.90;;;22.50;52.00;;;;;;4837531;29;44943;-79
2023/09/29 04:46:03;;;;;;;5.07;3.55;;;22.50;51.90;;;;;;4846480;29;45457;-79
2023/09/29 04:48:29;;;;;;;4.63;3.60;;;22.50;51.90;;;;;;4857758;29;45370;-81
2023/09/29 04:50:55;;;;;;;3.93;3.53;;;22.50;51.90;;;;;;4827817;29;45296;-79
2023/09/29 04:53:21;;;;;;;4.60;3.90;;;22.50;51.90;;;;;;4834148;29;45538;-79
2023/09/29 04:55:48;;;;;;;4.15;3.40;;;22.50;51.90;;;;;;4856888;29;46016;-80
2023/09/29 04:58:13;;;;;;;4.35;3.80;;;22.50;51.90;;;;;;4837032;29;45176;-81
2023/09/29 05:00:42;;;;;;;4.13;3.73;;;22.50;51.90;;;;;;4828867;29;45853;-80
2023/09/29 05:03:10;;;;;;;4.30;3.90;;;22.40;51.80;;;;;;4849768;29;45207;-81
2023/09/29 05:05:36;;;;;;;4.07;3.47;;;22.50;51.90;;;;;;4831846;29;47344;-79
2023/09/29 05:08:02;;;;;;;4.88;3.97;;;22.50;51.90;;;;;;4854728;29;45429;-79
2023/09/29 05:10:27;;;;;;;4.43;3.50;;;22.50;51.90;;;;;;4850946;29;45045;-80
2023/09/29 05:12:53;;;;;;;4.30;3.90;;;22.50;51.90;;;;;;4859755;29;45887;-80
2023/09/29 05:15:19;;;;;;;4.25;3.65;;;22.50;51.90;;;;;;4838198;29;47145;-90
2023/09/29 05:17:44;;;;;;;4.87;3.67;;;22.50;51.90;;;;;;4838442;29;45212;-80
2023/09/29 05:20:11;;;;;;;4.32;3.83;;;22.40;51.80;;;;;;4850551;29;45118;-80
2023/09/29 05:22:36;;;;;;;4.32;3.85;;;22.50;51.80;;;;;;4855142;29;45537;-83
2023/09/29 05:25:08;;;;;;;5.97;4.03;;;22.50;51.80;;;;;;4864696;29;47977;-88
2023/09/29 05:27:36;;;;;;;3.93;3.50;;;22.40;51.80;;;;;;4858185;29;45259;-80
2023/09/29 05:30:07;;;;;;;4.45;3.80;;;22.50;51.80;;;;;;4862769;29;45535;-83
2023/09/29 05:32:33;;;;;;;4.38;3.80;;;22.40;51.80;;;;;;4821919;29;45757;-81
2023/09/29 05:34:59;;;;;;;3.97;3.55;;;22.40;51.80;;;;;;4863340;29;46392;-80
2023/09/29 05:37:26;;;;;;;5.20;4.00;;;22.50;51.80;;;;;;4824757;29;45583;-84
2023/09/29 05:39:52;;;;;;;5.22;3.70;;;22.40;51.70;;;;;;4860178;29;44858;-80
2023/09/29 05:42:21;;;;;;;5.60;3.70;;;22.40;52.30;;;;;;4856244;29;44912;-81
2023/09/29 05:44:47;;;;;;;5.18;4.00;;;22.40;51.70;;;;;;4860349;29;46255;-84
2023/09/29 05:47:12;;;;;;;4.70;3.60;;;22.40;51.70;;;;;;4831478;29;45560;-80
2023/09/29 05:49:38;;;;;;;3.97;3.50;;;22.40;51.70;;;;;;4869683;29;45269;-80
2023/09/29 05:52:05;;;;;;;4.93;4.00;;;22.40;51.70;;;;;;4877512;29;45802;-80
2023/09/29 05:54:31;;;;;;;6.15;3.95;;;22.40;51.70;;;;;;4871495;29;46611;-83
2023/09/29 05:56:57;;;;;;;4.45;3.83;;;22.50;51.80;;;;;;4843213;29;45440;-79
2023/09/29 05:59:23;;;;;;;6.13;3.90;;;22.40;51.70;;;;;;4845299;29;45064;-81
2023/09/29 06:01:49;;;;;;;4.32;3.63;;;22.40;51.70;;;;;;4865341;29;45432;-79
2023/09/29 06:04:15;;;;;;;4.03;3.57;;;22.40;51.70;;;;;;4864211;29;45928;-79
2023/09/29 06:06:42;;;;;;;4.55;3.72;;;22.40;51.70;;;;;;4875590;29;45232;-83
2023/09/29 06:09:07;;;;;;;4.00;3.37;;;22.50;51.80;;;;;;4867246;29;45158;-83
2023/09/29 06:11:35;;;;;;;4.10;3.70;;;22.40;51.70;;;;;;4868273;29;44987;-80
2023/09/29 06:14:00;;;;;;;4.90;3.78;;;22.40;51.70;;;;;;4854163;29;45333;-80
2023/09/29 06:16:26;;;;;;;5.43;3.67;;;22.40;51.70;;;;;;4836709;29;44889;-81
2023/09/29 06:18:52;;;;;;;4.43;3.47;;;22.40;51.70;;;;;;4879090;29;45097;-81
2023/09/29 06:21:17;;;;;;;4.97;3.67;;;22.40;52.30;;;;;;4851741;29;45130;-86
2023/09/29 06:23:43;;;;;;;4.43;3.80;;;22.40;51.70;;;;;;4870973;29;45518;-83
2023/09/29 06:26:09;;;;;;;4.07;3.50;;;22.40;51.70;;;;;;4880825;29;46383;-80
2023/09/29 06:28:37;;;;;;;6.35;3.30;;;22.40;51.70;;;;;;4869334;29;45734;-83
2023/09/29 06:31:03;;;;;;;4.00;3.20;;;22.40;51.70;;;;;;4835702;29;45401;-81
2023/09/29 06:33:28;;;;;;;3.67;3.23;;;22.40;51.70;;;;;;4856092;29;45582;-81
2023/09/29 06:35:54;;;;;;;3.87;3.30;;;22.40;51.70;;;;;;4859882;29;44776;-84
2023/09/29 06:38:20;;;;;;;4.57;3.25;;;22.40;51.70;;;;;;4874848;29;45377;-87
2023/09/29 06:40:47;;;;;;;4.25;3.28;;;22.40;51.70;;;;;;4855483;29;45294;-80
2023/09/29 06:43:15;;;;;;;4.50;3.20;;;22.40;51.70;;;;;;4867901;29;46184;-81
2023/09/29 06:45:41;;;;;;;3.80;3.40;;;22.40;51.70;;;;;;4848248;29;45238;-86
2023/09/29 06:48:07;;;;;;;4.60;3.53;;;22.40;51.70;;;;;;4843339;29;45527;-84
2023/09/29 06:50:33;;;;;;;4.68;3.50;;;22.40;51.70;;;;;;4855395;29;44839;-81
2023/09/29 06:52:59;;;;;;;3.75;3.13;;;22.40;51.70;;;;;;4837045;29;45106;-84
2023/09/29 06:55:25;;;;;;;4.35;3.17;;;22.40;51.70;;;;;;4864918;29;45612;-85
2023/09/29 06:57:51;;;;;;;4.15;3.70;;;22.40;51.70;;;;;;4846439;29;45253;-80
2023/09/29 07:00:18;;;;;;;4.07;3.25;;;22.40;51.70;;;;;;4867524;29;45360;-82
2023/09/29 07:02:45;;;;;;;4.82;3.60;;;22.40;51.70;;;;;;4846635;29;46330;-80
2023/09/29 07:05:10;;;;;;;3.53;3.10;;;22.40;51.70;;;;;;4852600;29;44774;-82
2023/09/29 07:07:36;;;;;;;4.13;3.47;;;22.30;51.70;;;;;;4852564;29;45360;-81
2023/09/29 07:10:05;;;;;;;3.78;3.17;;;22.40;51.70;;;;;;4850879;29;45940;-82
2023/09/29 07:12:32;;;;;;;4.05;3.45;;;22.40;51.70;;;;;;4833645;29;46368;-80
2023/09/29 07:14:58;;;;;;;3.38;3.08;;;22.40;51.70;;;;;;4852729;29;45821;-83
2023/09/29 07:17:23;;;;;;;4.65;3.60;;;22.40;51.70;;;;;;4832052;29;44715;-84
2023/09/29 07:19:50;;;;;;;4.43;3.50;;;22.40;51.70;;;;;;4827924;29;44970;-82
2023/09/29 07:22:16;;;;;;;4.70;3.47;;;22.40;51.70;;;;;;4849295;29;46646;-84
2023/09/29 07:24:42;;;;;;;3.50;3.20;;;22.30;51.60;;;;;;4853370;29;44652;-80
2023/09/29 07:27:11;;;;;;;3.90;3.00;;;22.40;51.70;;;;;;4834718;29;45208;-85
2023/09/29 07:29:38;;;;;;;4.07;3.28;;;22.40;51.70;;;;;;4819365;29;45459;-81
2023/09/29 07:32:04;;;;;;;4.37;3.30;;;22.40;51.70;;;;;;4831677;29;46254;-81
2023/09/29 07:34:32;;;;;;;3.67;3.30;;;22.40;51.70;;;;;;4853159;29;45137;-82
2023/09/29 07:36:58;;;;;;;3.97;3.05;;;22.40;51.70;;;;;;4850117;29;44660;-84
2023/09/29 07:39:24;;;;;;;4.40;3.42;;;22.40;51.70;;;;;;4850132;29;45017;-80
2023/09/29 07:41:50;;;;;;;3.33;3.03;;;22.40;51.70;;;;;;4850330;29;45500;-86
2023/09/29 07:44:16;;;;;;;4.20;3.30;;;22.40;51.70;;;;;;4838213;29;45470;-81
2023/09/29 07:46:42;;;;;;;3.80;3.28;;;22.40;51.70;;;;;;4835229;29;45107;-84
2023/09/29 07:49:08;;;;;;;4.30;3.25;;;22.40;51.70;;;;;;4830067;29;45227;-82
2023/09/29 07:51:35;;;;;;;4.20;3.30;;;22.40;51.70;;;;;;4831599;29;47276;-82
2023/09/29 07:54:01;;;;;;;3.80;3.37;;;22.40;51.70;;;;;;4842013;29;45164;-80
2023/09/29 07:56:36;;;;;;;3.42;3.00;;;22.30;51.60;;;;;;4834656;29;45040;-86
2023/09/29 07:59:01;;;;;;;4.22;3.30;;;22.30;51.60;;;;;;4843109;29;44793;-83
2023/09/29 08:01:32;;;;;;;3.50;3.13;;;22.30;51.60;;;;;;4849016;29;47320;-90
2023/09/29 08:03:58;;;;;;;3.95;3.17;;;22.40;51.70;;;;;;4842537;29;45011;-80
2023/09/29 08:06:24;;;;;;;3.50;2.90;;;22.40;51.70;;;;;;4847613;29;45613;-84
2023/09/29 08:08:50;;;;;;;4.07;3.10;;;22.30;51.70;;;;;;4867667;29;45285;-83
2023/09/29 08:11:15;;;;;;;4.23;3.33;;;22.30;51.60;;;;;;4855807;29;45550;-82
2023/09/29 08:13:41;;;;;;;4.50;3.00;;;22.40;51.70;;;;;;4854392;29;45285;-79
2023/09/29 08:16:07;;;;;;;4.90;3.42;;;22.30;51.70;;;;;;4851496;29;44878;-79
2023/09/29 08:18:34;;;;;;;3.85;3.20;;;22.40;51.70;;;;;;4823142;29;45251;-80
2023/09/29 08:21:00;;;;;;;3.50;3.20;;;22.30;51.70;;;;;;4852893;29;46219;-85
2023/09/29 08:23:30;;;;;;;3.37;2.90;;;22.40;51.70;;;;;;4838343;29;45475;-84
2023/09/29 08:25:56;;;;;;;4.30;3.20;;;22.40;51.70;;;;;;4870595;29;45386;-84
2023/09/29 08:28:22;;;;;;;3.50;2.90;;;22.40;51.70;;;;;;4874803;29;45071;-80
2023/09/29 08:30:47;;;;;;;3.97;2.90;;;22.40;51.70;;;;;;4834581;29;46182;-83
2023/09/29 08:33:14;;;;;;;5.00;3.30;;;22.30;51.70;;;;;;4861168;29;45831;-79
2023/09/29 08:35:39;;;;;;;3.65;3.03;;;22.40;51.70;;;;;;4855948;29;45431;-79
2023/09/29 08:38:05;;;;;;;3.47;3.00;;;22.40;51.70;;;;;;4855972;29;45703;-81
2023/09/29 08:40:36;;;;;;;3.70;3.10;;;22.40;51.70;;;;;;4854963;29;45432;-82
2023/09/29 08:43:06;;;;;;;3.47;2.78;;;22.40;51.80;;;;;;4854491;29;45419;-82
2023/09/29 08:45:31;;;;;;;3.60;3.08;;;22.40;51.70;;;;;;4853958;29;45260;-84
2023/09/29 08:47:58;;;;;;;3.50;3.15;;;22.30;51.70;;;;;;4859988;29;44934;-84
2023/09/29 08:50:26;;;;;;;3.28;2.80;;;22.30;51.70;;;;;;4847928;29;45297;-82
2023/09/29 08:52:53;;;;;;;3.45;2.90;;;22.30;51.70;;;;;;4861921;29;45403;-82
2023/09/29 08:55:19;;;;;;;4.47;3.10;;;22.40;51.70;;;;;;4824518;29;45197;-90
2023/09/29 08:57:45;;;;;;;3.20;2.87;;;22.30;51.70;;;;;;4855375;29;45519;-80
2023/09/29 09:00:16;;;;;;;3.20;2.90;;;22.40;51.80;;;;;;4874758;29;45761;-81
2023/09/29 09:02:43;;;;;;;3.20;2.83;;;22.30;51.70;;;;;;4832515;29;46127;-80
2023/09/29 09:05:10;;;;;;;4.63;3.03;;;22.30;51.70;;;;;;4825741;29;45200;-82
2023/09/29 09:07:40;;;;;;;3.40;3.10;;;22.40;51.70;;;;;;4800893;29;45383;-84
2023/09/29 09:10:09;;;;;;;3.35;2.83;;;22.40;51.70;;;;;;4840192;29;45554;-83
2023/09/29 09:12:35;;;;;;;3.47;2.90;;;22.40;51.80;;;;;;4817456;29;45229;-80
2023/09/29 09:15:11;;;;;;;3.30;2.95;;;22.40;51.80;;;;;;4821737;29;47309;-81
2023/09/29 09:17:41;;;;;;;4.70;2.92;;;22.40;51.80;;;;;;4828237;29;45529;-82
2023/09/29 09:20:09;;;;;;;3.75;3.17;;;22.40;51.80;;;;;;4824669;29;47128;-90
2023/09/29 09:22:38;;;;;;;3.10;2.80;;;22.40;51.80;;;;;;4830052;29;44752;-87
2023/09/29 09:25:08;;;;;;;3.75;2.80;;;22.40;51.80;;;;;;4838933;29;45290;-83
2023/09/29 09:27:38;;;;;;;3.33;3.00;;;22.40;51.80;;;;;;4837100;29;45194;-82
2023/09/29 09:30:19;;;;;;;3.30;2.60;;;22.40;51.80;;;;;;4849522;29;45269;-89
2023/09/29 09:32:46;;;;;;;3.88;2.67;;;22.40;51.80;;;;;;4814507;29;44769;-85
2023/09/29 09:35:23;;;;;;;3.55;2.80;;;22.40;51.80;;;;;;4835781;29;45248;-84
2023/09/29 09:37:52;;;;;;;3.80;3.10;;;22.40;51.80;;;;;;4852494;29;45567;-81
2023/09/29 09:40:21;;;;;;;3.92;2.80;;;22.40;51.80;;;;;;4831551;29;46271;-89
2023/09/29 09:42:47;;;;;;;3.47;2.83;;;22.40;51.80;;;;;;4818851;29;45200;-81
2023/09/29 09:45:13;;;;;;;3.40;2.60;;;22.40;51.80;;;;;;4821147;29;45531;-90
2023/09/29 09:47:40;;;;;;;4.03;2.93;;;22.40;51.80;;;;;;4840568;29;45193;-86
2023/09/29 09:50:09;;;;;;;2.73;2.43;;;22.40;51.80;;;;;;4825060;29;48354;-85
2023/09/29 09:52:35;;;;;;;3.15;2.80;;;22.40;51.80;;;;;;4851050;29;45277;-80
2023/09/29 09:55:13;;;;;;;3.83;2.67;;;22.40;51.80;;;;;;4834354;29;45154;-80
2023/09/29 09:57:43;;;;;;;3.33;3.03;;;22.40;51.80;;;;;;4840668;29;45279;-83
2023/09/29 10:00:10;;;;;;;3.00;2.70;;;22.40;51.80;;;;;;4839083;29;47115;-83
2023/09/29 10:02:51;;;;;;;4.10;2.80;;;22.40;51.80;;;;;;4823991;29;45085;-83
2023/09/29 10:05:52;;;;;;;3.70;2.93;;;22.40;51.80;;;;;;4822509;29;45111;-82
2023/09/29 10:08:31;;;;;;;3.00;2.70;;;22.40;51.80;;;;;;4842916;29;45686;-80
2023/09/29 10:11:28;;;;;;;3.03;2.70;;;22.40;51.80;;;;;;4832005;29;46399;-79
2023/09/29 10:14:04;;;;;;;3.38;2.75;;;22.40;51.80;;;;;;4831450;29;45263;-79
2023/09/29 10:16:31;;;;;;;4.50;2.85;;;22.50;51.90;;;;;;4814115;29;46318;-81
2023/09/29 10:18:58;;;;;;;2.88;2.47;;;22.40;52.40;;;;;;4837061;29;45744;-84
2023/09/29 10:21:25;;;;;;;3.40;2.80;;;22.40;51.90;;;;;;4807852;29;46208;-80
2023/09/29 10:23:51;;;;;;;3.33;2.80;;;22.40;51.90;;;;;;4841652;29;45148;-80
2023/09/29 10:26:17;;;;;;;2.87;2.60;;;22.40;51.90;;;;;;4836226;29;44890;-80
2023/09/29 10:28:45;;;;;;;3.00;2.60;;;22.40;51.90;;;;;;4841621;29;45398;-80
2023/09/29 10:31:18;;;;;;;3.60;2.88;;;22.40;51.90;;;;;;4836590;29;45491;-81
2023/09/29 10:33:54;;;;;;;3.00;2.70;;;22.40;51.90;;;;;;4819091;29;45114;-80
2023/09/29 10:36:23;;;;;;;3.43;2.80;;;22.40;51.90;;;;;;4826819;29;45410;-79
2023/09/29 10:38:49;;;;;;;3.00;2.58;;;22.40;51.90;;;;;;4853006;29;45253;-88
2023/09/29 10:41:15;;;;;;;3.50;2.70;;;22.40;52.00;;;;;;4823750;29;47309;-80
2023/09/29 10:43:42;;;;;;;2.92;2.63;;;22.40;51.90;;;;;;4810565;29;45074;-81
2023/09/29 10:46:08;;;;;;;2.97;2.50;;;22.40;51.90;;;;;;4839339;29;45882;-82
2023/09/29 10:48:43;;;;;;;3.23;2.77;;;22.40;51.90;;;;;;4852202;29;45395;-81
2023/09/29 10:51:08;;;;;;;3.60;2.63;;;22.40;51.90;;;;;;4851187;29;45082;-81
2023/09/29 10:53:40;;;;;;;2.92;2.60;;;22.40;51.90;;;;;;4846813;29;45011;-80
2023/09/29 10:56:07;;;;;;;3.15;2.45;;;22.40;51.90;;;;;;4822685;29;45772;-80
2023/09/29 10:58:37;;;;;;;3.25;2.80;;;22.40;52.00;;;;;;4855092;29;45290;-81
2023/09/29 11:01:03;;;;;;;3.13;2.83;;;22.40;51.90;;;;;;4836052;29;47160;-80
2023/09/29 11:03:30;;;;;;;3.47;2.57;;;22.40;51.90;;;;;;4854560;29;45542;-79
2023/09/29 11:05:58;;;;;;;3.25;2.78;;;22.40;51.90;;;;;;4846230;29;45401;-83
2023/09/29 11:08:31;;;;;;;3.80;2.85;;;22.40;52.00;;;;;;4875874;29;45395;-79
2023/09/29 11:10:59;;;;;;;3.03;2.70;;;22.40;52.00;;;;;;4871662;29;46954;-81
2023/09/29 11:13:26;;;;;;;4.05;2.67;;;22.40;51.90;;;;;;4835144;29;45231;-79
2023/09/29 11:15:52;;;;;;;2.63;2.40;;;22.40;51.90;;;;;;4847088;29;45335;-80
2023/09/29 11:18:47;;;;;;;3.10;2.70;;;22.40;52.00;;;;;;4863701;29;45083;-83
2023/09/29 11:21:13;;;;;;;2.70;2.50;;;22.40;52.30;;;;;;4862568;29;45317;-79
2023/09/29 11:23:45;;;;;;;3.20;2.80;;;22.40;52.00;;;;;;4864199;29;45126;-80
2023/09/29 11:26:11;;;;;;;3.30;2.63;;;22.40;52.00;;;;;;4875149;29;45160;-79
2023/09/29 11:28:44;;;;;;;3.50;3.08;;;22.50;52.00;;;;;;4859309;29;45181;-81
2023/09/29 11:31:12;;;;;;;3.53;2.83;;;22.40;52.00;;;;;;4854503;29;46112;-81
2023/09/29 11:33:39;;;;;;;3.03;2.70;;;22.40;52.00;;;;;;4841714;29;45299;-79
2023/09/29 11:36:15;;;;;;;2.50;2.30;;;22.40;52.00;;;;;;4860685;29;45644;-82
2023/09/29 11:38:40;;;;;;;3.53;2.53;;;22.40;52.00;;;;;;4843458;29;46148;-82
2023/09/29 11:41:06;;;;;;;3.07;2.40;;;22.50;52.10;;;;;;4856625;29;46613;-85
2023/09/29 11:43:33;;;;;;;3.53;2.55;;;22.50;52.20;;;;;;4862515;29;44874;-79
2023/09/29 11:45:59;;;;;;;3.47;2.80;;;22.40;52.10;;;;;;4855511;29;45356;-87
2023/09/29 11:48:25;;;;;;;2.80;2.33;;;22.50;52.40;;;;;;4852964;29;45296;-81
2023/09/29 11:50:52;;;;;;;4.63;2.50;;;22.40;52.30;;;;;;4856080;29;45519;-81
2023/09/29 11:53:18;;;;;;;2.90;2.60;;;22.40;52.30;;;;;;4863209;29;45878;-80
2023/09/29 11:55:44;;;;;;;3.30;2.67;;;22.40;52.40;;;;;;4863401;29;44727;-85
2023/09/29 11:58:10;;;;;;;3.25;2.80;;;22.50;52.50;;;;;;4852285;29;45166;-83
2023/09/29 12:00:36;;;;;;;4.47;2.88;;;22.50;52.50;;;;;;4866374;29;46380;-80
2023/09/29 12:03:05;;;;;;;2.72;2.50;;;22.50;52.50;;;;;;4842127;29;45461;-79
2023/09/29 12:05:32;;;;;;;2.42;2.22;;;22.50;52.50;;;;;;4826920;29;45652;-84
2023/09/29 12:07:58;;;;;;;3.53;2.30;;;22.50;52.30;;;;;;4824971;29;45764;-80
2023/09/29 12:10:24;;;;;;;3.00;2.40;;;22.50;52.20;;;;;;4839193;29;46480;-80
2023/09/29 12:12:49;;;;;;;3.03;2.45;;;22.50;52.20;;;;;;4843389;29;45081;-88
2023/09/29 12:15:17;;;;;;;3.00;2.50;;;22.50;52.20;;;;;;4812273;29;45366;-82
2023/09/29 12:17:44;;;;;;;3.20;2.47;;;22.50;52.20;;;;;;4854942;29;45481;-81
2023/09/29 12:20:13;;;;;;;3.08;2.67;;;22.50;52.20;;;;;;4820441;29;45621;-80
2023/09/29 12:22:46;;;;;;;2.90;2.33;;;22.50;52.20;;;;;;4841329;29;45596;-80
2023/09/29 12:25:14;;;;;;;2.60;2.40;;;22.50;52.20;;;;;;4821013;29;44985;-82
2023/09/29 12:27:44;;;;;;;2.72;2.40;;;22.50;52.20;;;;;;4836999;29;45037;-80
2023/09/29 12:30:12;;;;;;;3.03;2.35;;;22.40;52.10;;;;;;4824718;29;46341;-82
2023/09/29 12:32:39;;;;;;;2.97;2.47;;;22.50;52.20;;;;;;4836930;29;45192;-79
2023/09/29 12:35:15;;;;;;;2.85;2.55;;;22.50;52.20;;;;;;4830679;29;45232;-87
2023/09/29 12:37:42;;;;;;;2.95;2.38;;;22.50;52.20;;;;;;4854958;29;44876;-80
2023/09/29 12:40:09;;;;;;;2.55;2.35;;;22.60;52.30;;;;;;4825357;29;46044;-82
2023/09/29 12:42:35;;;;;;;2.55;2.20;;;22.50;52.20;;;;;;4823014;29;45348;-80
2023/09/29 12:45:05;;;;;;;2.60;2.33;;;22.50;52.30;;;;;;4821204;29;46345;-82
2023/09/29 12:47:31;;;;;;;2.78;2.38;;;22.50;52.30;;;;;;4823659;29;44725;-81
2023/09/29 12:49:57;;;;;;;3.33;2.40;;;22.60;52.30;;;;;;4835151;29;45136;-80
2023/09/29 12:52:23;;;;;;;3.05;2.38;;;22.50;52.30;;;;;;4833380;29;45911;-82
2023/09/29 12:54:51;;;;;;;2.92;2.40;;;22.50;52.30;;;;;;4831404;29;45755;-80
2023/09/29 12:57:18;;;;;;;2.70;2.23;;;22.50;52.30;;;;;;4833915;29;45562;-82
2023/09/29 12:59:44;;;;;;;3.00;2.25;;;22.50;52.30;;;;;;4829272;29;46330;-83
2023/09/29 13:02:11;;;;;;;2.50;2.30;;;22.60;52.30;;;;;;4842364;29;44610;-80
2023/09/29 13:04:41;;;;;;;2.72;2.47;;;22.60;52.30;;;;;;4872670;29;45208;-80
2023/09/29 13:07:09;;;;;;;2.70;2.30;;;22.60;52.30;;;;;;4853424;29;45651;-88
2023/09/29 13:09:35;;;;;;;2.30;2.10;;;22.60;52.40;;;;;;4850683;29;46958;-80
2023/09/29 13:12:00;;;;;;;2.50;2.05;;;22.60;52.30;;;;;;4837177;29;45222;-80
2023/09/29 13:14:26;;;;;;;2.97;2.40;;;22.60;52.30;;;;;;4847034;29;44838;-80
2023/09/29 13:16:52;;;;;;;3.40;2.40;;;22.60;52.30;;;;;;4857080;29;45446;-81
2023/09/29 13:19:18;;;;;;;2.20;2.00;;;22.60;52.30;;;;;;4871164;29;46139;-81
2023/09/29 13:21:45;;;;;;;2.38;2.17;;;22.60;52.30;;;;;;4842249;29;45148;-84
2023/09/29 13:24:12;;;;;;;2.57;2.10;;;22.60;52.40;;;;;;4871219;29;46041;-80
2023/09/29 13:26:40;;;;;;;4.07;2.35;;;22.60;52.40;;;;;;4853768;29;45521;-81
2023/09/29 13:29:05;;;;;;;3.28;2.30;;;22.60;52.40;;;;;;4839583;29;46887;-81
2023/09/29 13:31:31;;;;;;;2.50;2.10;;;22.60;52.40;;;;;;4848452;29;45335;-81
2023/09/29 13:33:58;;;;;;;2.60;2.20;;;22.60;52.40;;;;;;4853828;29;45531;-84
2023/09/29 13:36:24;;;;;;;2.47;2.15;;;22.60;52.40;;;;;;4845691;29;45136;-80
2023/09/29 13:38:50;;;;;;;2.40;2.17;;;22.60;52.40;;;;;;4854602;29;46274;-80
2023/09/29 13:41:16;;;;;;;2.17;1.98;;;22.60;52.40;;;;;;4850806;29;45194;-80
2023/09/29 13:43:43;;;;;;;2.55;2.30;;;22.60;52.40;;;;;;4825822;29;45315;-80
2023/09/29 13:46:09;;;;;;;2.33;2.03;;;22.60;52.40;;;;;;4862348;29;45420;-80
2023/09/29 13:48:37;;;;;;;2.03;1.80;;;22.60;52.40;;;;;;4850515;29;46233;-80
2023/09/29 13:51:06;;;;;;;2.93;2.00;;;22.60;52.40;;;;;;4854616;29;45480;-81
2023/09/29 13:53:33;;;;;;;3.42;2.20;;;22.70;52.50;;;;;;4846185;29;45292;-81
2023/09/29 13:56:04;;;;;;;2.22;1.90;;;22.60;52.40;;;;;;4852301;29;45465;-84
2023/09/29 13:58:32;;;;;;;2.50;2.28;;;22.70;52.50;;;;;;4859008;29;45420;-80
2023/09/29 14:01:00;;;;;;;2.85;2.15;;;22.70;52.50;;;;;;4867940;29;45748;-82
2023/09/29 14:03:26;;;;;;;2.50;1.90;;;22.60;52.40;;;;;;4849213;29;45459;-85
2023/09/29 14:05:52;;;;;;;2.33;2.13;;;22.70;52.50;;;;;;4866950;29;45581;-83
2023/09/29 14:08:19;;;;;;;2.20;2.00;;;22.60;52.50;;;;;;4851075;29;47134;-82
2023/09/29 14:10:45;;;;;;;2.85;2.05;;;22.60;52.50;;;;;;4840592;29;44782;-86
2023/09/29 14:13:11;;;;;;;2.20;1.95;;;22.70;52.50;;;;;;4855986;29;45429;-80
2023/09/29 14:15:37;;;;;;;2.57;2.00;;;22.70;52.50;;;;;;4869420;29;45539;-81
2023/09/29 14:18:03;;;;;;;2.70;2.00;;;22.70;52.50;;;;;;4833750;29;46254;-80
2023/09/29 14:20:33;;;;;;;2.70;2.10;;;22.70;52.50;;;;;;4840467;29;45269;-80
2023/09/29 14:22:59;;;;;;;2.22;2.00;;;22.60;52.50;;;;;;4852925;29;45423;-82
2023/09/29 14:25:26;;;;;;;3.57;2.10;;;22.70;53.10;;;;;;4853760;29;45073;-80
2023/09/29 14:27:53;;;;;;;2.63;2.13;;;22.70;52.50;;;;;;4868293;29;45282;-83
2023/09/29 14:30:22;;;;;;;2.60;2.00;;;22.70;52.50;;;;;;4851996;29;44726;-91
2023/09/29 14:32:47;;;;;;;2.05;1.83;;;22.60;52.50;;;;;;4837225;29;46603;-80
2023/09/29 14:35:13;;;;;;;2.30;1.90;;;22.70;52.50;;;;;;4819749;29;44810;-83
2023/09/29 14:37:40;;;;;;;2.33;2.13;;;22.70;52.50;;;;;;4857433;29;45740;-80
2023/09/29 14:40:08;;;;;;;2.28;2.05;;;22.60;52.50;;;;;;4834284;29;45331;-81
2023/09/29 14:42:34;;;;;;;2.58;2.10;;;22.70;52.50;;;;;;4848481;29;45429;-80
2023/09/29 14:45:03;;;;;;;2.23;2.00;;;22.70;52.50;;;;;;4842693;29;45471;-81
2023/09/29 14:47:29;;;;;;;2.60;1.80;;;22.70;52.60;;;;;;4833083;29;45466;-79
2023/09/29 14:49:57;;;;;;;2.50;2.00;;;22.70;52.50;;;;;;4872476;29;45513;-81
2023/09/29 14:52:23;;;;;;;3.00;2.10;;;22.70;52.50;;;;;;4847255;29;45186;-80
2023/09/29 14:54:49;;;;;;;1.90;1.70;;;22.70;52.50;;;;;;4871284;29;45757;-83
2023/09/29 14:57:15;;;;;;;2.10;1.83;;;22.70;52.50;;;;;;4858478;29;46413;-82
2023/09/29 14:59:41;;;;;;;2.72;2.00;;;22.70;52.60;;;;;;4838561;29;45262;-80
2023/09/29 15:02:07;;;;;;;1.95;1.75;;;22.70;52.50;;;;;;4848376;29;45043;-79
2023/09/29 15:04:33;;;;;;;1.75;1.63;;;22.70;52.60;;;;;;4874888;29;45294;-86
2023/09/29 15:06:59;;;;;;;2.75;1.90;;;22.80;52.60;;;;;;4867850;29;45391;-80
2023/09/29 15:09:26;;;;;;;2.00;1.80;;;22.70;52.60;;;;;;4855734;29;45119;-81
2023/09/29 15:11:53;;;;;;;2.20;1.90;;;22.80;52.60;;;;;;4854172;29;45300;-82
2023/09/29 15:14:19;;;;;;;1.80;1.60;;;22.70;52.60;;;;;;4857025;29;44767;-79
2023/09/29 15:16:46;;;;;;;1.90;1.70;;;22.70;52.60;;;;;;4847964;29;45139;-80
2023/09/29 15:19:16;;;;;;;2.00;1.80;;;22.70;52.60;;;;;;4851582;29;45398;-83
2023/09/29 15:21:42;;;;;;;2.13;1.90;;;22.70;52.60;;;;;;4837641;29;45590;-80
2023/09/29 15:24:09;;;;;;;2.15;1.95;;;22.70;52.60;;;;;;4870291;29;45297;-79
2023/09/29 15:26:34;;;;;;;2.33;1.80;;;22.70;52.60;;;;;;4853978;29;46187;-79
2023/09/29 15:29:00;;;;;;;2.90;2.03;;;22.80;52.60;;;;;;4840206;29;45728;-80
2023/09/29 15:31:26;;;;;;;2.90;1.95;;;22.80;52.70;;;;;;4867657;29;44769;-80
2023/09/29 15:33:52;;;;;;;2.00;1.80;;;22.80;52.70;;;;;;4836651;29;45235;-79
2023/09/29 15:36:18;;;;;;;2.10;1.90;;;22.70;52.60;;;;;;4852118;29;45499;-79
2023/09/29 15:38:43;;;;;;;2.17;1.80;;;22.70;52.60;;;;;;4832792;29;44897;-82
2023/09/29 15:41:09;;;;;;;2.00;1.80;;;22.80;52.70;;;;;;4846240;29;45592;-80
2023/09/29 15:43:35;;;;;;;1.98;1.70;;;22.80;52.70;;;;;;4844655;29;45200;-82
2023/09/29 15:46:11;;;;;;;2.40;2.07;;;22.80;52.70;;;;;;4848009;29;46582;-80
2023/09/29 15:48:38;;;;;;;1.90;1.70;;;22.80;52.70;;;;;;4858034;29;45393;-80
2023/09/29 15:51:07;;;;;;;2.10;1.90;;;22.80;52.70;;;;;;4837411;29;44786;-83